createdAt,value
2024-05-09T00:04:48.685Z,16746.55078
2024-05-09T00:19:50.797Z,12055.18164
2024-05-09T00:34:52.876Z,13511.93555
2024-05-09T00:49:54.945Z,7207.49561
2024-05-09T01:04:57.134Z,9090.82324
2024-05-09T01:19:59.376Z,7679.26904
2024-05-09T01:35:01.518Z,5356.18457
2024-05-09T01:50:03.736Z,1009.46375
2024-05-09T02:05:06.170Z,800.41431
2024-05-09T02:20:13.151Z,630.91486
2024-05-09T02:35:18.244Z,467.06531
2024-05-09T02:50:29.079Z,318.28241
2024-05-09T03:05:36.682Z,153.49123
2024-05-09T03:20:39.487Z,46.14153
2024-05-09T03:35:41.963Z,8.47498
2024-05-09T03:50:44.079Z,0.94166
2024-05-09T04:05:46.246Z,0
2024-05-09T04:20:48.519Z,0
2024-05-09T04:35:50.714Z,0
2024-05-09T04:50:53.177Z,0
2024-05-09T05:05:55.850Z,0
2024-05-09T05:20:58.155Z,0
2024-05-09T05:36:00.620Z,0
2024-05-09T05:51:04.627Z,0
2024-05-09T06:06:07.080Z,0
2024-05-09T06:21:09.290Z,0
2024-05-09T06:36:11.448Z,0
2024-05-09T06:51:13.607Z,0
2024-05-09T07:06:15.815Z,0
2024-05-09T07:21:18.154Z,0
2024-05-09T07:36:20.365Z,0
2024-05-09T08:06:27.494Z,0
2024-05-09T08:21:29.635Z,0
2024-05-09T08:36:31.753Z,0
2024-05-09T08:51:33.782Z,0
2024-05-09T09:06:35.894Z,0
2024-05-09T09:21:37.930Z,0
2024-05-09T09:36:39.947Z,0
2024-05-09T09:51:41.959Z,0
2024-05-09T10:06:44.020Z,0
2024-05-09T10:21:46.057Z,0
2024-05-09T10:36:48.110Z,0
2024-05-09T10:51:50.331Z,0
2024-05-09T11:06:52.375Z,0
2024-05-09T11:21:54.460Z,0
2024-05-09T11:36:56.506Z,0
2024-05-09T11:51:58.675Z,3.76666
2024-05-09T12:07:00.769Z,27.30825
2024-05-09T12:22:02.841Z,105.46636
2024-05-09T12:37:04.938Z,236.35765
2024-05-09T12:52:07.279Z,376.66556
2024-05-09T13:07:09.543Z,726.96454
2024-05-09T13:22:11.876Z,1016.05536
2024-05-09T13:37:14.107Z,1798.57812
2024-05-09T13:52:16.207Z,17425.49023
2024-05-09T14:07:18.309Z,6505.01416
2024-05-09T14:22:20.388Z,14598.61621
2024-05-09T14:37:22.457Z,3924.85522
2024-05-09T14:52:24.500Z,5744.1499
2024-05-09T15:07:26.615Z,3194.12402
2024-05-09T15:22:28.622Z,3664.0144
2024-05-09T15:37:30.624Z,5972.03271
2024-05-09T15:52:32.671Z,7991.90186
2024-05-09T16:07:34.657Z,8958.04883
2024-05-09T16:22:36.640Z,8809.26562
2024-05-09T16:37:38.745Z,9309.28906
2024-05-09T16:52:40.840Z,9671.83008
2024-05-09T17:07:42.899Z,10065.44531
2024-05-09T17:22:44.886Z,10259.42871
2024-05-09T17:37:46.964Z,10448.70312
2024-05-09T17:52:49.282Z,10331.93652
2024-05-09T18:07:51.371Z,10997.69336
2024-05-09T18:22:53.478Z,10276.37793
2024-05-09T18:37:55.506Z,10521.21094
2024-05-09T18:52:58.319Z,10764.16016
2024-05-09T19:08:00.495Z,9903.47949
2024-05-09T19:23:02.620Z,10023.07031
2024-05-09T19:38:04.866Z,10297.09473
2024-05-09T19:53:06.916Z,10849.85156
2024-05-09T20:08:08.985Z,11989.26465
2024-05-09T20:23:11.269Z,11601.2998
2024-05-09T20:38:13.590Z,9682.18848
2024-05-09T20:53:15.757Z,9799.89648
2024-05-09T21:08:17.867Z,12545.78809
2024-05-09T21:23:20.025Z,14199.35059
2024-05-09T21:38:22.084Z,15796.41211
2024-05-09T21:53:24.247Z,16965.95898
2024-05-09T22:08:26.194Z,17821.93164
2024-05-09T22:23:28.331Z,18648.71289
2024-05-09T22:38:30.403Z,18862.4707
2024-05-09T22:53:32.395Z,19537.64258
2024-05-09T23:08:34.376Z,20425.63281
2024-05-09T23:23:36.378Z,20837.13867
2024-05-09T23:38:38.581Z,20965.20508
2024-05-09T23:53:40.567Z,21103.63086
